Time;durP1;ratioP1;P1;durP2;ratioP2;P2;SDS_P1;SDS_P2;PMS_P1;PMS_P2;Temp;Humidity;BMP_temperature;BMP_pressure;BME280_temperature;BME280_humidity;BME280_pressure;Samples;Min_cycle;Max_cycle;Signal;HPM_P1;HPM_P2
2023/02/19 00:01:35;;;;;;;4.30;4.00;;;10.00;99.90;;;;;;5076100;28;20209;-81
2023/02/19 00:04:04;;;;;;;5.45;4.95;;;10.00;99.90;;;;;;5078817;28;20210;-81
2023/02/19 00:06:32;;;;;;;8.88;5.70;;;10.00;99.90;;;;;;5078381;28;20236;-81
2023/02/19 00:09:00;;;;;;;6.60;5.55;;;10.00;99.90;;;;;;5079434;28;20194;-82
2023/02/19 00:11:28;;;;;;;5.10;1.88;;;10.00;99.90;;;;;;5080192;28;20202;-82
2023/02/19 00:13:59;;;;;;;1.23;0.60;;;10.00;99.90;;;;;;5080190;28;20277;-81
2023/02/19 00:16:27;;;;;;;5.63;4.95;;;10.00;99.90;;;;;;5079748;28;20268;-82
2023/02/19 00:18:56;;;;;;;4.53;4.22;;;10.00;99.90;;;;;;5080638;28;20195;-81
2023/02/19 00:21:23;;;;;;;6.60;4.30;;;9.90;99.90;;;;;;5079883;28;20194;-79
2023/02/19 00:23:51;;;;;;;10.85;5.20;;;9.90;99.90;;;;;;5080323;28;20214;-82
2023/02/19 00:26:18;;;;;;;6.75;4.68;;;9.90;99.90;;;;;;5080302;28;20214;-81
2023/02/19 00:28:45;;;;;;;38.47;4.50;;;9.90;99.90;;;;;;5069429;28;20201;-81
2023/02/19 00:31:18;;;;;;;3.15;2.25;;;9.90;99.90;;;;;;5078956;28;20189;-82
2023/02/19 00:33:45;;;;;;;5.07;3.85;;;9.90;99.90;;;;;;5078465;28;20201;-80
2023/02/19 00:36:12;;;;;;;5.75;2.75;;;9.90;99.90;;;;;;5077937;28;20221;-80
2023/02/19 00:38:40;;;;;;;1.17;1.17;;;9.90;99.90;;;;;;5077823;28;20198;-81
2023/02/19 00:41:18;;;;;;;7.78;3.55;;;9.90;99.90;;;;;;5078613;28;20584;-81
2023/02/19 00:43:47;;;;;;;5.80;5.35;;;9.80;99.90;;;;;;5077773;28;20267;-81
2023/02/19 00:46:15;;;;;;;5.70;3.20;;;9.80;99.90;;;;;;5078263;28;20224;-81
2023/02/19 00:48:42;;;;;;;9.30;6.15;;;9.80;99.90;;;;;;5078647;28;20213;-82
2023/02/19 00:51:08;;;;;;;2.15;2.05;;;9.80;99.90;;;;;;5078488;28;20198;-81
2023/02/19 00:53:35;;;;;;;1.17;1.13;;;9.80;99.90;;;;;;5078705;28;20190;-81
2023/02/19 00:56:03;;;;;;;2.33;2.13;;;9.80;99.90;;;;;;5078230;28;20218;-81
2023/02/19 00:58:29;;;;;;;2.40;2.25;;;9.80;99.90;;;;;;5077732;28;20221;-81
2023/02/19 01:00:56;;;;;;;2.17;1.50;;;9.80;99.90;;;;;;5078781;28;20201;-81
2023/02/19 01:03:24;;;;;;;3.53;3.33;;;9.80;99.90;;;;;;5077520;28;20229;-80
2023/02/19 01:05:53;;;;;;;3.30;1.88;;;9.80;99.90;;;;;;5078196;28;20220;-79
2023/02/19 01:08:20;;;;;;;1.48;1.27;;;9.90;99.90;;;;;;5077561;28;20198;-80
2023/02/19 01:10:47;;;;;;;18.50;4.38;;;9.80;99.90;;;;;;5077691;28;20205;-81
2023/02/19 01:13:14;;;;;;;1.80;1.70;;;9.80;99.90;;;;;;5077380;28;20200;-80
2023/02/19 01:15:41;;;;;;;0.40;0.30;;;9.80;99.90;;;;;;5077514;28;20222;-80
2023/02/19 01:18:08;;;;;;;9.52;7.40;;;9.80;99.90;;;;;;5078084;28;20519;-80
2023/02/19 01:20:39;;;;;;;12.18;5.75;;;9.90;99.90;;;;;;5077693;28;20228;-80
2023/02/19 01:23:06;;;;;;;2.13;2.03;;;9.80;99.90;;;;;;5078575;28;20213;-82
2023/02/19 01:25:32;;;;;;;8.13;4.38;;;9.80;99.90;;;;;;5077525;28;20209;-81
2023/02/19 01:27:59;;;;;;;0.45;0.40;;;9.80;99.90;;;;;;5077654;28;20205;-82
2023/02/19 01:30:26;;;;;;;6.57;4.65;;;9.80;99.90;;;;;;5078819;28;20202;-81
2023/02/19 01:32:53;;;;;;;2.70;1.98;;;9.90;99.90;;;;;;5076835;28;20205;-81
2023/02/19 01:35:20;;;;;;;1.00;0.93;;;9.80;99.90;;;;;;5076635;28;20189;-82
2023/02/19 01:37:48;;;;;;;5.85;4.70;;;9.80;99.90;;;;;;5076768;28;20190;-82
2023/02/19 01:40:15;;;;;;;0.60;0.60;;;9.80;99.90;;;;;;5077313;28;20194;-81
2023/02/19 01:42:43;;;;;;;2.72;2.25;;;9.90;99.90;;;;;;5076794;28;20198;-81
2023/02/19 01:45:21;;;;;;;5.63;3.08;;;9.90;99.90;;;;;;5076464;28;20264;-82
2023/02/19 01:47:54;;;;;;;3.55;3.42;;;9.90;99.90;;;;;;5076436;28;20603;-81
2023/02/19 01:50:21;;;;;;;2.72;1.50;;;9.80;99.90;;;;;;5076288;28;20190;-79
2023/02/19 01:52:49;;;;;;;3.58;3.40;;;9.80;99.90;;;;;;5076130;28;20198;-82
2023/02/19 01:55:16;;;;;;;1.23;1.23;;;9.80;99.90;;;;;;5077207;28;20661;-81
2023/02/19 01:57:48;;;;;;;1.63;1.52;;;9.80;99.90;;;;;;5078378;28;20198;-82
2023/02/19 02:00:16;;;;;;;11.93;4.15;;;9.80;99.90;;;;;;5078857;28;20285;-82
2023/02/19 02:02:51;;;;;;;9.98;4.53;;;9.90;99.90;;;;;;5077966;28;20194;-81
2023/02/19 02:05:24;;;;;;;6.25;4.20;;;9.90;99.90;;;;;;5077018;28;20213;-81
2023/02/19 02:10:37;;;;;;;5.95;4.30;;;9.80;99.90;;;;;;5076680;28;20204;-80
2023/02/19 02:13:04;;;;;;;6.28;5.35;;;9.80;99.90;;;;;;5077147;28;20208;-81
2023/02/19 02:15:39;;;;;;;2.47;1.00;;;9.80;99.90;;;;;;5076202;28;20260;-81
2023/02/19 02:18:11;;;;;;;7.78;4.60;;;9.80;99.90;;;;;;5076890;28;20200;-81
2023/02/19 02:20:58;;;;;;;5.60;2.83;;;9.80;99.90;;;;;;5076689;28;20197;-81
2023/02/19 02:23:41;;;;;;;1.52;1.42;;;9.80;99.90;;;;;;5076152;28;20237;-79
2023/02/19 02:26:22;;;;;;;3.60;2.38;;;9.80;99.90;;;;;;5069490;28;20277;-80
2023/02/19 02:29:33;;;;;;;0.85;0.85;;;9.80;99.90;;;;;;5076829;28;20194;-81
2023/02/19 02:32:05;;;;;;;5.32;3.88;;;9.80;99.90;;;;;;5069854;28;20280;-81
2023/02/19 02:34:39;;;;;;;2.88;2.35;;;9.80;99.90;;;;;;5075684;28;20198;-82
2023/02/19 02:37:09;;;;;;;0.50;0.50;;;9.80;99.90;;;;;;5075221;28;20245;-82
2023/02/19 02:39:37;;;;;;;0.90;0.90;;;9.80;99.90;;;;;;5076181;28;20202;-83
2023/02/19 02:47:42;;;;;;;1.13;1.02;;;9.70;99.90;;;;;;5075859;28;20249;-81
2023/02/19 02:50:14;;;;;;;13.32;5.88;;;9.70;99.90;;;;;;5077393;28;20200;-81
2023/02/19 02:55:31;;;;;;;3.55;3.25;;;9.70;99.90;;;;;;5076521;28;20244;-82
2023/02/19 02:57:58;;;;;;;1.75;1.65;;;9.70;99.90;;;;;;5069359;28;20198;-81
2023/02/19 03:02:09;;;;;;;12.57;3.25;;;9.80;99.90;;;;;;5076853;28;20198;-83
2023/02/19 03:03:16;;;;;;;9.65;5.20;;;9.70;99.90;;;;;;5070724;28;20244;-79
2023/02/19 03:05:54;;;;;;;1.55;1.55;;;9.70;99.90;;;;;;5075335;28;20222;-81
2023/02/19 03:08:27;;;;;;;2.05;1.95;;;9.70;99.90;;;;;;5076561;28;20197;-79
2023/02/19 03:10:58;;;;;;;12.50;8.88;;;9.70;99.90;;;;;;5076292;28;20293;-81
2023/02/19 03:19:21;;;;;;;5.97;4.10;;;9.70;99.90;;;;;;5035289;28;20709;-81
2023/02/19 03:21:54;;;;;;;3.53;1.95;;;9.70;99.90;;;;;;5074246;28;20201;-82
2023/02/19 03:27:13;;;;;;;1.45;1.35;;;9.70;99.90;;;;;;5069678;28;20225;-81
2023/02/19 03:29:42;;;;;;;1.58;1.48;;;9.70;99.90;;;;;;5075331;28;20204;-81
2023/02/19 03:32:14;;;;;;;0.85;0.60;;;9.70;99.90;;;;;;5075331;28;20198;-80
2023/02/19 03:34:47;;;;;;;0.57;0.57;;;9.70;99.90;;;;;;5075482;28;20202;-81
2023/02/19 03:37:24;;;;;;;2.17;2.08;;;9.70;99.90;;;;;;5077512;28;20233;-81
2023/02/19 03:39:51;;;;;;;5.10;3.67;;;9.70;99.90;;;;;;5079639;28;20201;-80
2023/02/19 03:42:36;;;;;;;1.73;1.63;;;9.70;99.90;;;;;;5079738;28;20198;-82
2023/02/19 03:45:22;;;;;;;0.50;0.30;;;9.70;99.90;;;;;;5072413;28;20267;-81
2023/02/19 03:47:53;;;;;;;0.60;0.60;;;9.70;99.90;;;;;;5078696;28;20206;-81
2023/02/19 03:50:28;;;;;;;0.50;0.40;;;9.60;99.90;;;;;;5079776;28;20196;-82
2023/02/19 03:53:04;;;;;;;1.95;1.80;;;9.60;99.90;;;;;;5079252;28;20200;-80
2023/02/19 03:55:38;;;;;;;7.47;3.40;;;9.60;99.90;;;;;;5079455;28;20198;-81
2023/02/19 03:58:12;;;;;;;3.88;3.58;;;9.60;99.90;;;;;;5072236;28;20197;-80
2023/02/19 04:00:43;;;;;;;0.93;0.93;;;9.60;99.90;;;;;;5079410;28;20202;-81
2023/02/19 04:03:18;;;;;;;0.50;0.40;;;9.60;99.90;;;;;;5079227;28;20194;-81
2023/02/19 04:05:50;;;;;;;2.15;2.05;;;9.50;99.90;;;;;;5079357;28;20595;-83
2023/02/19 04:08:20;;;;;;;0.50;0.47;;;9.50;99.90;;;;;;5080307;28;20194;-82
2023/02/19 04:10:48;;;;;;;0.60;0.60;;;9.50;99.90;;;;;;5079925;28;20204;-80
2023/02/19 04:13:19;;;;;;;0.65;0.65;;;9.50;99.90;;;;;;5078845;28;20204;-81
2023/02/19 04:15:48;;;;;;;3.40;3.10;;;9.50;99.90;;;;;;5078275;28;20228;-83
2023/02/19 04:18:18;;;;;;;0.50;0.40;;;9.50;99.90;;;;;;5078471;28;20194;-80
2023/02/19 04:20:48;;;;;;;0.60;0.60;;;9.50;99.90;;;;;;5078894;28;20190;-82
2023/02/19 04:23:19;;;;;;;0.50;0.30;;;9.50;99.90;;;;;;5079141;28;20565;-80
2023/02/19 04:25:50;;;;;;;1.67;1.58;;;9.50;99.90;;;;;;5078290;28;20221;-81
2023/02/19 04:28:18;;;;;;;3.80;2.90;;;9.50;99.90;;;;;;5078925;28;20194;-80
2023/02/19 04:30:45;;;;;;;1.20;1.20;;;9.50;99.90;;;;;;5078423;28;20698;-80
2023/02/19 04:33:12;;;;;;;4.20;2.63;;;9.50;99.90;;;;;;5079144;28;20201;-80
2023/02/19 04:35:39;;;;;;;1.35;0.95;;;9.50;99.90;;;;;;5077857;28;20214;-80
2023/02/19 04:38:07;;;;;;;2.40;1.10;;;9.50;99.90;;;;;;5078379;28;20205;-80
2023/02/19 04:40:34;;;;;;;2.65;1.50;;;9.50;99.90;;;;;;5078549;28;20661;-81
2023/02/19 04:43:01;;;;;;;4.70;4.22;;;9.50;99.90;;;;;;5078409;28;20194;-80
2023/02/19 04:45:28;;;;;;;7.55;3.25;;;9.50;99.90;;;;;;5078793;28;20210;-78
2023/02/19 04:47:55;;;;;;;2.13;1.88;;;9.50;99.90;;;;;;5078195;28;20762;-79
2023/02/19 04:50:22;;;;;;;1.20;1.20;;;9.40;99.90;;;;;;5078533;28;20224;-80
2023/02/19 04:52:48;;;;;;;1.73;1.27;;;9.40;99.90;;;;;;5078740;28;20232;-81
2023/02/19 04:55:17;;;;;;;4.63;2.15;;;9.40;99.90;;;;;;5078405;28;20186;-79
2023/02/19 04:57:44;;;;;;;1.88;1.70;;;9.40;99.90;;;;;;5078964;28;20224;-82
2023/02/19 05:00:12;;;;;;;3.47;3.15;;;9.40;99.90;;;;;;5079027;28;20217;-83
2023/02/19 05:02:38;;;;;;;0.50;0.40;;;9.40;99.90;;;;;;5080140;28;20202;-81
2023/02/19 05:05:05;;;;;;;10.50;4.88;;;9.40;99.90;;;;;;5078012;28;20717;-82
2023/02/19 05:07:33;;;;;;;0.85;0.85;;;9.40;99.90;;;;;;5078335;28;20222;-80
2023/02/19 05:10:00;;;;;;;1.77;1.70;;;9.40;99.90;;;;;;5078282;28;20198;-82
2023/02/19 05:12:29;;;;;;;5.57;2.35;;;9.40;99.90;;;;;;5078837;28;20202;-80
2023/02/19 05:14:56;;;;;;;2.15;2.00;;;9.40;99.90;;;;;;5078243;28;20572;-82
2023/02/19 05:17:23;;;;;;;1.77;1.63;;;9.40;99.90;;;;;;5077998;28;20224;-82
2023/02/19 05:19:50;;;;;;;41.08;7.22;;;9.40;99.90;;;;;;5077510;28;20274;-81
2023/02/19 05:22:17;;;;;;;4.72;3.35;;;9.40;99.90;;;;;;5078270;28;20198;-81
2023/02/19 05:24:44;;;;;;;5.47;3.72;;;9.40;99.90;;;;;;5077627;28;20210;-82
2023/02/19 05:27:10;;;;;;;1.63;1.50;;;9.40;99.90;;;;;;5078974;28;20220;-80
2023/02/19 05:29:39;;;;;;;4.80;1.85;;;9.40;99.90;;;;;;5078120;28;20195;-80
2023/02/19 05:32:05;;;;;;;3.95;2.35;;;9.40;99.90;;;;;;5069393;28;20224;-81
2023/02/19 05:34:32;;;;;;;0.93;0.93;;;9.40;99.90;;;;;;5077090;28;20289;-80
2023/02/19 05:36:59;;;;;;;0.82;0.77;;;9.30;99.90;;;;;;5076881;28;20218;-81
2023/02/19 05:39:26;;;;;;;0.93;0.93;;;9.30;99.90;;;;;;5077949;28;20202;-81
2023/02/19 05:41:52;;;;;;;0.50;0.50;;;9.40;99.90;;;;;;5077655;28;20511;-80
2023/02/19 05:44:19;;;;;;;2.80;2.60;;;9.40;99.90;;;;;;5077896;28;20213;-81
2023/02/19 05:46:47;;;;;;;8.75;3.90;;;9.40;99.90;;;;;;5077769;28;20226;-80
2023/02/19 05:49:14;;;;;;;1.27;0.93;;;9.40;99.90;;;;;;5077676;28;20252;-81
2023/02/19 05:51:41;;;;;;;3.22;2.97;;;9.40;99.90;;;;;;5078621;28;20464;-80
2023/02/19 05:54:09;;;;;;;5.72;3.60;;;9.30;99.90;;;;;;5077764;28;20194;-80
2023/02/19 05:56:36;;;;;;;0.57;0.55;;;9.30;99.90;;;;;;5077609;28;20271;-81
2023/02/19 05:59:06;;;;;;;0.77;0.77;;;9.30;99.90;;;;;;5077724;28;20237;-81
2023/02/19 06:01:34;;;;;;;1.50;0.73;;;9.30;99.90;;;;;;5078216;28;20225;-81
2023/02/19 06:04:02;;;;;;;1.88;1.77;;;9.30;99.90;;;;;;5077721;28;20678;-80
2023/02/19 06:06:29;;;;;;;8.50;5.32;;;9.20;99.90;;;;;;5077691;28;20224;-81
2023/02/19 06:08:56;;;;;;;0.50;0.40;;;9.20;99.90;;;;;;5077473;28;20202;-81
2023/02/19 06:11:23;;;;;;;1.85;1.75;;;9.20;99.90;;;;;;5078107;28;20204;-80
2023/02/19 06:13:50;;;;;;;2.92;2.42;;;9.20;99.90;;;;;;5077833;28;20261;-83
2023/02/19 06:16:18;;;;;;;1.65;1.05;;;9.20;99.90;;;;;;5078566;28;20304;-79
2023/02/19 06:18:45;;;;;;;4.72;2.80;;;9.20;99.90;;;;;;5078054;28;20202;-81
2023/02/19 06:21:14;;;;;;;1.75;1.65;;;9.20;99.90;;;;;;5077626;28;20194;-81
2023/02/19 06:23:41;;;;;;;1.00;0.50;;;9.20;99.90;;;;;;5077961;28;20202;-78
2023/02/19 06:26:10;;;;;;;5.30;4.80;;;9.20;99.90;;;;;;5078126;28;20217;-80
2023/02/19 06:28:37;;;;;;;2.90;2.72;;;9.20;99.90;;;;;;5077024;28;20198;-81
2023/02/19 06:31:04;;;;;;;1.40;1.30;;;9.20;99.90;;;;;;5077878;28;20197;-83
2023/02/19 06:33:31;;;;;;;1.00;0.95;;;9.20;99.90;;;;;;5078215;28;20204;-80
2023/02/19 06:35:59;;;;;;;6.03;5.55;;;9.20;99.90;;;;;;5077369;28;20309;-81
2023/02/19 06:38:28;;;;;;;0.65;0.65;;;9.10;99.90;;;;;;5077689;28;20220;-82
2023/02/19 06:40:59;;;;;;;0.50;0.30;;;9.10;99.90;;;;;;5077418;28;20198;-83
2023/02/19 06:43:26;;;;;;;3.90;3.03;;;9.10;99.90;;;;;;5080468;28;20224;-84
2023/02/19 06:45:53;;;;;;;3.13;2.75;;;9.10;99.90;;;;;;5080249;28;20593;-83
2023/02/19 06:48:20;;;;;;;2.15;1.90;;;9.10;99.90;;;;;;5079909;28;20217;-82
2023/02/19 06:50:46;;;;;;;3.90;3.20;;;9.10;99.90;;;;;;5079526;28;20202;-84
2023/02/19 06:53:13;;;;;;;1.75;1.67;;;9.10;99.90;;;;;;5079462;28;20202;-83
2023/02/19 06:55:41;;;;;;;5.25;2.45;;;9.10;99.90;;;;;;5079638;28;20281;-84
2023/02/19 06:58:08;;;;;;;16.10;1.90;;;9.10;99.90;;;;;;5079692;28;20233;-84
2023/02/19 07:00:35;;;;;;;0.50;0.50;;;9.00;99.90;;;;;;5080248;28;20257;-83
2023/02/19 07:03:02;;;;;;;1.80;1.67;;;9.10;99.90;;;;;;5079922;28;20677;-83
2023/02/19 07:05:29;;;;;;;0.88;0.88;;;9.10;99.90;;;;;;5080474;28;20213;-84
2023/02/19 07:07:55;;;;;;;0.50;0.40;;;9.00;99.90;;;;;;5080482;28;20200;-82
2023/02/19 07:10:22;;;;;;;8.75;3.75;;;9.00;99.90;;;;;;5081716;28;20265;-82
2023/02/19 07:12:50;;;;;;;1.15;1.05;;;9.00;99.90;;;;;;5080010;28;20592;-83
2023/02/19 07:15:17;;;;;;;1.90;1.80;;;9.00;99.90;;;;;;5080246;28;20186;-81
2023/02/19 07:17:44;;;;;;;0.50;0.40;;;9.00;99.90;;;;;;5079132;28;20290;-82
2023/02/19 07:20:12;;;;;;;1.30;0.70;;;9.00;99.90;;;;;;5079236;28;20198;-83
2023/02/19 07:22:38;;;;;;;0.55;0.55;;;9.00;99.90;;;;;;5079938;28;20280;-84
2023/02/19 07:25:06;;;;;;;1.55;1.45;;;9.00;99.90;;;;;;5078126;28;20220;-83
2023/02/19 07:27:32;;;;;;;1.27;1.23;;;9.00;99.90;;;;;;5079132;28;20222;-83
2023/02/19 07:30:01;;;;;;;8.98;3.65;;;9.10;99.90;;;;;;5078024;28;20289;-83
2023/02/19 07:32:28;;;;;;;2.97;2.88;;;9.10;99.90;;;;;;5078394;28;20229;-80
2023/02/19 07:34:54;;;;;;;1.45;1.35;;;9.10;99.90;;;;;;5077867;28;20197;-84
2023/02/19 07:37:21;;;;;;;1.80;1.70;;;9.10;99.90;;;;;;5078332;28;20554;-82
2023/02/19 07:39:49;;;;;;;4.63;2.55;;;9.10;99.90;;;;;;5077647;28;20202;-84
2023/02/19 07:42:16;;;;;;;0.50;0.50;;;9.10;99.90;;;;;;5079741;28;20208;-83
2023/02/19 07:44:43;;;;;;;0.88;0.80;;;9.10;99.90;;;;;;5077676;28;20200;-84
2023/02/19 07:47:11;;;;;;;6.78;5.03;;;9.10;99.90;;;;;;5078954;28;20214;-83
2023/02/19 07:49:37;;;;;;;2.00;1.50;;;9.10;99.90;;;;;;5078570;28;20204;-83
2023/02/19 07:52:04;;;;;;;3.05;1.92;;;9.10;99.90;;;;;;5078453;28;20198;-83
2023/02/19 07:54:31;;;;;;;1.83;1.58;;;9.10;99.90;;;;;;5077780;28;20262;-81
2023/02/19 07:56:58;;;;;;;0.50;0.40;;;9.20;99.90;;;;;;5077412;28;20557;-82
2023/02/19 07:59:25;;;;;;;2.60;2.50;;;9.20;99.90;;;;;;5078215;28;20240;-82
2023/02/19 08:04:38;;;;;;;2.88;2.17;;;9.20;99.90;;;;;;5078900;28;20587;-83
2023/02/19 08:07:04;;;;;;;1.00;1.00;;;9.30;99.90;;;;;;5078609;28;20224;-83
2023/02/19 08:09:31;;;;;;;10.23;3.60;;;9.30;99.90;;;;;;5077956;28;20194;-83
2023/02/19 08:14:43;;;;;;;2.55;2.35;;;9.40;99.90;;;;;;5077177;28;20252;-83
2023/02/19 08:17:10;;;;;;;0.88;0.85;;;9.30;99.90;;;;;;5077291;28;20209;-83
2023/02/19 08:19:38;;;;;;;0.50;0.50;;;9.30;99.90;;;;;;5077178;28;20285;-83
2023/02/19 08:22:04;;;;;;;0.50;0.40;;;9.30;99.90;;;;;;5077866;28;20568;-83
2023/02/19 08:24:32;;;;;;;4.70;3.60;;;9.30;99.90;;;;;;5080111;28;20204;-81
2023/02/19 08:26:59;;;;;;;0.60;0.60;;;9.40;99.90;;;;;;5080945;28;20283;-83
2023/02/19 08:29:27;;;;;;;1.10;1.10;;;9.40;99.90;;;;;;5081508;28;20591;-82
2023/02/19 08:31:53;;;;;;;6.90;1.95;;;9.50;99.90;;;;;;5082238;28;20213;-81
2023/02/19 08:34:20;;;;;;;1.05;0.95;;;9.50;99.90;;;;;;5083277;28;20276;-84
2023/02/19 08:36:48;;;;;;;2.25;1.45;;;9.60;99.90;;;;;;5083716;28;20308;-83
2023/02/19 08:39:15;;;;;;;0.50;0.43;;;9.70;99.90;;;;;;5073414;28;20280;-84
2023/02/19 08:41:42;;;;;;;0.52;0.45;;;9.60;99.90;;;;;;5082056;28;20194;-83
2023/02/19 08:44:09;;;;;;;0.50;0.40;;;9.70;99.90;;;;;;5081716;28;20206;-82
2023/02/19 08:46:36;;;;;;;0.50;0.40;;;9.70;99.90;;;;;;5081843;28;20303;-82
2023/02/19 08:49:02;;;;;;;2.35;2.20;;;9.60;99.90;;;;;;5081165;28;20198;-82
2023/02/19 08:51:29;;;;;;;0.90;0.90;;;9.60;99.90;;;;;;5081006;28;20194;-82
2023/02/19 08:53:57;;;;;;;1.77;0.82;;;9.60;99.90;;;;;;5081723;28;20205;-84
2023/02/19 08:56:24;;;;;;;2.90;2.55;;;9.70;99.90;;;;;;5081195;28;20216;-83
2023/02/19 08:58:51;;;;;;;1.15;1.05;;;9.70;99.90;;;;;;5080949;28;20202;-83
2023/02/19 09:01:18;;;;;;;3.30;2.95;;;9.80;99.90;;;;;;5081323;28;20198;-83
2023/02/19 09:03:47;;;;;;;0.50;0.40;;;9.90;99.90;;;;;;5080612;28;20201;-82
2023/02/19 09:06:16;;;;;;;0.50;0.40;;;9.90;99.90;;;;;;5081241;28;20691;-84
2023/02/19 09:08:43;;;;;;;1.40;0.93;;;9.90;99.90;;;;;;5081726;28;20198;-83
2023/02/19 09:11:11;;;;;;;0.50;0.40;;;10.00;99.90;;;;;;5081897;28;23955;-83
2023/02/19 09:13:38;;;;;;;0.80;0.77;;;10.10;99.90;;;;;;5083619;28;20202;-82
2023/02/19 09:16:05;;;;;;;0.50;0.40;;;10.20;99.90;;;;;;5082997;28;20301;-82
2023/02/19 09:18:32;;;;;;;3.90;2.85;;;10.20;99.90;;;;;;5080697;28;20222;-82
2023/02/19 09:21:01;;;;;;;2.55;1.63;;;10.10;99.90;;;;;;5083116;28;20202;-81
2023/02/19 09:23:29;;;;;;;1.85;1.75;;;10.10;99.90;;;;;;5085788;28;20209;-82
2023/02/19 09:26:02;;;;;;;0.50;0.40;;;10.10;99.90;;;;;;5083446;28;20253;-81
2023/02/19 09:28:30;;;;;;;1.58;0.98;;;10.10;99.90;;;;;;5080436;28;20201;-81
2023/02/19 09:30:57;;;;;;;0.50;0.35;;;10.10;99.90;;;;;;5079819;28;20198;-82
2023/02/19 09:33:23;;;;;;;0.50;0.40;;;10.00;99.90;;;;;;5081367;28;20197;-81
2023/02/19 09:35:50;;;;;;;2.78;2.50;;;10.10;99.90;;;;;;5082398;28;20228;-82
2023/02/19 09:38:17;;;;;;;1.15;1.05;;;10.10;99.90;;;;;;5074802;28;20201;-82
2023/02/19 09:40:44;;;;;;;0.85;0.82;;;10.00;99.90;;;;;;5083362;28;20201;-81
2023/02/19 09:43:16;;;;;;;0.50;0.40;;;10.00;99.90;;;;;;5078346;28;20289;-82
2023/02/19 09:45:44;;;;;;;3.10;2.90;;;9.80;99.90;;;;;;5084548;28;20246;-82
2023/02/19 09:48:12;;;;;;;4.38;3.40;;;9.80;99.90;;;;;;5081660;28;20204;-81
2023/02/19 09:50:43;;;;;;;1.83;1.15;;;9.80;99.90;;;;;;5082693;28;20289;-81
2023/02/19 09:53:15;;;;;;;1.20;1.20;;;9.80;99.90;;;;;;5080438;28;20255;-81
2023/02/19 09:55:43;;;;;;;0.70;0.70;;;9.90;99.90;;;;;;5081385;28;20277;-81
2023/02/19 09:58:23;;;;;;;1.17;1.02;;;10.00;99.90;;;;;;5082798;28;20262;-81
2023/02/19 10:00:53;;;;;;;1.02;1.02;;;10.00;99.90;;;;;;5083511;28;20205;-82
2023/02/19 10:03:30;;;;;;;1.33;1.23;;;10.30;99.90;;;;;;5083437;28;20200;-80
2023/02/19 10:05:58;;;;;;;0.90;0.90;;;10.30;99.90;;;;;;5082190;28;20309;-80
2023/02/19 10:08:25;;;;;;;0.50;0.40;;;10.50;99.90;;;;;;5081876;28;20194;-80
2023/02/19 10:10:53;;;;;;;0.50;0.40;;;10.60;99.90;;;;;;5081852;28;20247;-79
2023/02/19 10:13:21;;;;;;;0.50;0.40;;;10.70;99.90;;;;;;5081458;28;20193;-81
2023/02/19 10:15:53;;;;;;;1.00;0.80;;;10.80;99.90;;;;;;5080606;28;20206;-80
2023/02/19 10:18:22;;;;;;;0.50;0.40;;;10.90;99.90;;;;;;5081348;28;20257;-81
2023/02/19 10:20:51;;;;;;;1.97;1.80;;;11.00;99.90;;;;;;5080555;28;20213;-81
2023/02/19 10:23:18;;;;;;;2.97;1.97;;;11.10;99.90;;;;;;5080523;28;20712;-81
2023/02/19 10:25:47;;;;;;;0.50;0.40;;;11.20;99.90;;;;;;5080970;28;20835;-81
2023/02/19 10:28:17;;;;;;;0.70;0.65;;;11.00;99.90;;;;;;5080667;28;20229;-80
2023/02/19 10:30:49;;;;;;;0.50;0.35;;;11.00;99.90;;;;;;5081392;28;20248;-81
2023/02/19 10:33:18;;;;;;;0.90;0.57;;;11.00;99.90;;;;;;5081647;28;20236;-80
2023/02/19 10:35:56;;;;;;;0.50;0.40;;;10.90;99.90;;;;;;5080871;28;20600;-81
2023/02/19 10:38:28;;;;;;;1.25;1.15;;;10.90;99.90;;;;;;5072021;28;20224;-79
2023/02/19 10:41:01;;;;;;;0.93;0.93;;;10.90;99.90;;;;;;5081467;28;20277;-80
2023/02/19 10:43:33;;;;;;;2.35;2.25;;;10.90;99.90;;;;;;5073200;28;20229;-81
2023/02/19 10:46:04;;;;;;;0.70;0.65;;;10.80;99.90;;;;;;5079502;28;20221;-82
2023/02/19 10:48:35;;;;;;;0.50;0.50;;;10.80;99.90;;;;;;5083000;28;20198;-84
2023/02/19 10:51:06;;;;;;;2.47;0.75;;;10.90;99.90;;;;;;5081292;28;20217;-80
2023/02/19 10:53:43;;;;;;;1.98;1.27;;;11.30;99.90;;;;;;5081006;28;20213;-80
2023/02/19 10:56:13;;;;;;;1.97;1.17;;;11.60;99.90;;;;;;5080092;28;20221;-81
2023/02/19 10:58:43;;;;;;;0.50;0.50;;;11.80;99.90;;;;;;5081415;28;20444;-81
2023/02/19 11:01:13;;;;;;;1.37;1.27;;;11.90;99.90;;;;;;5080955;28;20432;-79
2023/02/19 11:03:42;;;;;;;0.60;0.40;;;12.00;99.90;;;;;;5081554;28;20432;-80
2023/02/19 11:06:11;;;;;;;0.87;0.87;;;12.30;99.90;;;;;;5079834;28;20480;-80
2023/02/19 11:08:48;;;;;;;0.50;0.40;;;12.50;99.90;;;;;;5121678;22;20483;-79
2023/02/19 11:11:27;;;;;;;1.03;1.03;;;12.50;99.90;;;;;;5068395;28;20444;-77
2023/02/19 11:13:57;;;;;;;1.37;1.27;;;12.20;99.90;;;;;;5075353;28;20807;-79
2023/02/19 11:16:36;;;;;;;0.50;0.37;;;12.20;99.90;;;;;;5064767;28;20436;-79
2023/02/19 11:19:04;;;;;;;0.80;0.70;;;12.30;99.90;;;;;;5056337;28;20986;-78
2023/02/19 11:21:32;;;;;;;0.50;0.40;;;12.40;99.90;;;;;;5043812;28;20961;-79
2023/02/19 11:24:01;;;;;;;0.50;0.40;;;12.50;99.90;;;;;;5051702;28;20919;-77
2023/02/19 11:26:34;;;;;;;3.80;1.53;;;12.30;99.90;;;;;;5055957;28;20484;-78
2023/02/19 11:29:02;;;;;;;3.53;0.90;;;12.50;99.90;;;;;;5056188;28;20525;-78
2023/02/19 11:31:31;;;;;;;1.00;1.00;;;12.40;99.90;;;;;;5056520;28;20448;-78
2023/02/19 11:33:59;;;;;;;0.50;0.40;;;12.20;99.90;;;;;;5056139;28;20514;-79
2023/02/19 11:36:36;;;;;;;3.70;2.33;;;12.10;99.90;;;;;;5044502;28;20953;-77
2023/02/19 11:39:21;;;;;;;0.50;0.40;;;12.00;99.90;;;;;;5057812;28;20871;-79
2023/02/19 11:42:12;;;;;;;1.13;1.10;;;11.70;99.90;;;;;;5057688;28;20501;-79
2023/02/19 11:44:50;;;;;;;1.90;0.50;;;11.80;99.90;;;;;;5056473;28;20544;-79
2023/02/19 11:47:41;;;;;;;0.50;0.40;;;11.90;99.90;;;;;;5055321;28;21010;-79
2023/02/19 11:50:18;;;;;;;0.50;0.40;;;11.90;99.90;;;;;;5059404;28;20205;-79
2023/02/19 11:52:56;;;;;;;0.50;0.40;;;12.00;99.90;;;;;;5059687;28;20939;-79
2023/02/19 11:55:36;;;;;;;4.93;1.03;;;12.20;99.90;;;;;;5056337;28;20441;-77
2023/02/19 11:58:19;;;;;;;0.50;0.40;;;12.30;99.90;;;;;;5059886;28;20461;-80
2023/02/19 12:00:55;;;;;;;1.10;1.00;;;12.30;99.90;;;;;;5063965;28;20920;-78
2023/02/19 12:03:43;;;;;;;1.93;0.87;;;12.00;99.90;;;;;;5061562;28;20449;-80
2023/02/19 12:06:23;;;;;;;0.50;0.40;;;11.70;99.90;;;;;;5062486;28;20451;-79
2023/02/19 12:09:23;;;;;;;0.57;0.57;;;11.40;99.90;;;;;;5064987;28;20222;-79
2023/02/19 12:12:17;;;;;;;1.08;0.88;;;11.30;99.90;;;;;;5058701;28;20500;-78
2023/02/19 12:14:59;;;;;;;0.50;0.30;;;11.20;99.90;;;;;;5057907;28;20209;-80
2023/02/19 12:17:47;;;;;;;0.53;0.53;;;11.40;99.90;;;;;;5062428;28;20218;-80
2023/02/19 12:20:25;;;;;;;0.60;0.55;;;11.50;99.90;;;;;;5063420;28;20508;-79
2023/02/19 12:23:03;;;;;;;1.07;1.07;;;11.60;99.90;;;;;;5062249;28;20209;-79
2023/02/19 12:25:52;;;;;;;1.17;1.08;;;11.70;99.90;;;;;;5062447;28;20440;-80
2023/02/19 12:28:39;;;;;;;0.50;0.40;;;11.70;99.90;;;;;;5061373;28;20219;-79
2023/02/19 12:31:27;;;;;;;0.60;0.50;;;11.40;99.90;;;;;;5061270;28;20210;-78
2023/02/19 12:34:20;;;;;;;0.60;0.60;;;11.30;99.90;;;;;;5058386;28;20194;-79
2023/02/19 12:36:56;;;;;;;0.50;0.40;;;11.20;99.90;;;;;;5052374;28;20444;-79
2023/02/19 12:39:32;;;;;;;0.50;0.40;;;11.10;99.90;;;;;;5058269;28;20429;-78
2023/02/19 12:42:08;;;;;;;0.50;0.40;;;11.10;99.90;;;;;;5059597;28;20441;-79
2023/02/19 12:44:42;;;;;;;8.68;1.15;;;11.30;99.90;;;;;;5056811;28;20573;-77
2023/02/19 12:47:16;;;;;;;0.68;0.60;;;11.40;99.90;;;;;;5057447;28;20305;-79
2023/02/19 12:49:48;;;;;;;0.50;0.37;;;11.60;99.90;;;;;;5056704;28;20201;-77
2023/02/19 12:52:20;;;;;;;0.90;0.70;;;11.90;99.90;;;;;;5056744;28;20454;-79
2023/02/19 12:54:50;;;;;;;1.10;1.00;;;12.10;99.90;;;;;;5058771;28;20455;-79
2023/02/19 12:57:22;;;;;;;0.50;0.40;;;12.10;99.90;;;;;;5058666;28;20521;-79
2023/02/19 12:59:54;;;;;;;0.50;0.33;;;12.20;99.90;;;;;;5057199;28;20533;-79
2023/02/19 13:02:25;;;;;;;3.27;0.50;;;12.10;99.90;;;;;;5057412;28;20488;-79
2023/02/19 13:04:58;;;;;;;0.85;0.85;;;12.20;99.90;;;;;;5058139;28;20652;-80
2023/02/19 13:07:32;;;;;;;0.70;0.70;;;12.10;99.90;;;;;;5056758;28;20218;-79
2023/02/19 13:10:06;;;;;;;0.60;0.50;;;12.00;99.90;;;;;;5059082;28;20451;-78
2023/02/19 13:12:37;;;;;;;0.50;0.40;;;11.80;99.90;;;;;;5052791;28;20451;-78
2023/02/19 13:15:13;;;;;;;0.63;0.63;;;11.80;99.90;;;;;;5058056;28;20442;-79
2023/02/19 13:17:43;;;;;;;0.50;0.40;;;11.90;99.90;;;;;;5051200;28;20555;-77
2023/02/19 13:20:18;;;;;;;3.30;1.53;;;11.70;99.90;;;;;;5057387;28;20446;-79
2023/02/19 13:25:49;;;;;;;0.53;0.50;;;11.40;99.90;;;;;;5050657;28;20506;-79
2023/02/19 13:28:42;;;;;;;0.60;0.50;;;11.30;99.90;;;;;;5058058;28;20476;-79
2023/02/19 13:31:38;;;;;;;0.50;0.40;;;11.00;99.90;;;;;;5055299;28;20387;-79
2023/02/19 13:34:17;;;;;;;0.50;0.40;;;10.90;99.90;;;;;;5054298;28;20855;-78
2023/02/19 13:36:44;;;;;;;1.25;1.05;;;10.80;99.90;;;;;;5048368;28;20278;-79
2023/02/19 13:39:14;;;;;;;1.25;1.15;;;10.70;99.90;;;;;;5055092;28;20215;-78